Time;durP1;ratioP1;P1;durP2;ratioP2;P2;SDS_P1;SDS_P2;PMS_P1;PMS_P2;Temp;Humidity;BMP_temperature;BMP_pressure;BME280_temperature;BME280_humidity;BME280_pressure;Samples;Min_cycle;Max_cycle;Signal;HPM_P1;HPM_P2
2023/02/11 00:00:32;;;;;;;32.73;12.20;;;7.50;99.90;;;;;;6122801;23;20794;-71
2023/02/11 00:02:59;;;;;;;17.67;10.33;;;7.60;99.90;;;;;;6123539;23;20506;-70
2023/02/11 00:05:27;;;;;;;11.17;6.90;;;7.50;99.90;;;;;;6122443;23;20433;-71
2023/02/11 00:07:54;;;;;;;14.83;7.50;;;7.50;99.90;;;;;;6124232;23;20466;-71
2023/02/11 00:10:22;;;;;;;19.13;8.63;;;7.50;99.90;;;;;;6123303;23;20456;-70
2023/02/11 00:12:51;;;;;;;19.17;8.03;;;7.50;99.90;;;;;;6122835;23;20944;-70
2023/02/11 00:15:18;;;;;;;16.57;9.87;;;7.50;99.90;;;;;;6122813;23;20389;-70
2023/02/11 00:17:45;;;;;;;12.70;7.83;;;7.50;99.90;;;;;;6122352;23;20453;-72
2023/02/11 00:20:11;;;;;;;21.73;11.57;;;7.50;99.90;;;;;;6123010;23;20494;-70
2023/02/11 00:22:38;;;;;;;16.10;9.60;;;7.50;99.90;;;;;;6123810;23;20471;-70
2023/02/11 00:25:06;;;;;;;16.57;11.07;;;7.50;99.90;;;;;;6123374;23;20443;-69
2023/02/11 00:27:33;;;;;;;12.67;8.40;;;7.50;99.90;;;;;;6123514;23;20407;-70
2023/02/11 00:30:01;;;;;;;22.90;10.43;;;7.50;99.90;;;;;;6122631;23;20449;-70
2023/02/11 00:32:28;;;;;;;21.77;9.20;;;7.40;99.90;;;;;;6123658;23;20816;-70
2023/02/11 00:34:55;;;;;;;18.47;9.70;;;7.50;99.90;;;;;;6124744;23;20476;-70
2023/02/11 00:37:22;;;;;;;17.27;8.93;;;7.50;99.90;;;;;;6124947;23;20425;-70
2023/02/11 00:39:50;;;;;;;17.53;11.20;;;7.50;99.90;;;;;;6123996;23;20493;-70
2023/02/11 00:59:01;;;;;;;20.53;8.17;;;7.50;99.90;;;;;;6006990;23;20385;-70
2023/02/11 01:01:28;;;;;;;12.13;6.70;;;7.60;99.90;;;;;;6006631;23;20494;-71
2023/02/11 01:03:55;;;;;;;20.33;9.57;;;7.70;99.90;;;;;;6124885;23;20754;-70
2023/02/11 01:06:22;;;;;;;18.83;8.57;;;7.70;99.90;;;;;;6128171;23;20434;-71
2023/02/11 01:08:49;;;;;;;16.10;8.40;;;7.70;99.90;;;;;;6124916;23;20441;-71
2023/02/11 01:11:18;;;;;;;19.87;9.97;;;7.70;99.90;;;;;;6125104;23;20481;-71
2023/02/11 01:13:47;;;;;;;11.60;7.07;;;7.80;99.90;;;;;;6125746;23;20432;-71
2023/02/11 01:16:15;;;;;;;16.40;8.83;;;7.70;99.90;;;;;;6125193;23;20425;-71
2023/02/11 01:18:43;;;;;;;20.17;8.70;;;7.80;99.90;;;;;;6125320;23;20386;-71
2023/02/11 01:21:10;;;;;;;14.97;7.93;;;7.80;99.90;;;;;;6124917;23;20414;-71
2023/02/11 01:23:37;;;;;;;19.07;7.03;;;7.80;99.90;;;;;;6125580;23;20485;-71
2023/02/11 01:26:04;;;;;;;17.80;9.37;;;7.80;99.90;;;;;;6126358;23;20474;-71
2023/02/11 01:28:31;;;;;;;17.37;8.17;;;7.70;99.90;;;;;;6074856;23;20403;-70
2023/02/11 01:30:59;;;;;;;13.60;7.83;;;7.70;99.90;;;;;;6125695;23;20405;-70
2023/02/11 01:33:28;;;;;;;18.50;10.10;;;7.70;99.90;;;;;;6125894;23;20411;-71
2023/02/11 01:35:55;;;;;;;15.10;8.17;;;7.70;99.90;;;;;;6125211;23;21060;-71
2023/02/11 01:38:25;;;;;;;27.63;9.30;;;7.70;99.90;;;;;;6124662;23;20516;-71
2023/02/11 01:40:54;;;;;;;18.87;9.10;;;7.80;99.90;;;;;;6124427;23;20514;-70
2023/02/11 01:43:22;;;;;;;23.40;9.57;;;7.80;99.90;;;;;;6124965;23;20472;-71
2023/02/11 01:46:13;;;;;;;15.90;9.47;;;7.80;99.90;;;;;;6124585;23;20494;-71
2023/02/11 01:48:44;;;;;;;15.83;7.90;;;7.80;99.90;;;;;;6124972;23;20362;-72
2023/02/11 01:51:15;;;;;;;10.33;6.20;;;7.90;99.90;;;;;;6124109;23;20742;-70
2023/02/11 01:59:18;;;;;;;15.97;7.90;;;7.80;99.90;;;;;;6123456;23;20431;-71
2023/02/11 02:01:50;;;;;;;11.90;7.27;;;7.80;99.90;;;;;;6125083;23;20522;-71
2023/02/11 02:04:20;;;;;;;15.87;7.77;;;7.90;99.90;;;;;;6124351;23;20435;-71
2023/02/11 02:06:52;;;;;;;8.70;5.37;;;7.90;99.90;;;;;;6124908;23;20483;-70
2023/02/11 02:09:23;;;;;;;14.77;5.03;;;7.80;99.90;;;;;;6124817;23;20475;-71
2023/02/11 02:11:50;;;;;;;15.07;9.47;;;7.70;99.90;;;;;;6123607;23;20489;-71
2023/02/11 02:14:17;;;;;;;18.50;8.33;;;7.60;99.90;;;;;;6123888;23;20456;-70
2023/02/11 02:16:45;;;;;;;20.43;9.83;;;7.60;99.90;;;;;;6124080;23;20447;-70
2023/02/11 02:19:47;;;;;;;17.50;6.10;;;7.60;99.90;;;;;;6124677;23;20462;-71
2023/02/11 02:22:49;;;;;;;10.20;8.40;;;7.70;99.90;;;;;;6125268;23;20401;-71
2023/02/11 02:25:40;;;;;;;15.23;6.73;;;7.60;99.90;;;;;;6125715;23;20393;-71
2023/02/11 02:28:24;;;;;;;12.60;7.93;;;7.60;99.90;;;;;;6125201;23;20712;-71
2023/02/11 02:31:22;;;;;;;12.33;6.20;;;7.60;99.90;;;;;;6124486;23;20438;-71
2023/02/11 02:34:00;;;;;;;13.13;6.47;;;7.70;99.90;;;;;;6124325;23;20366;-70
2023/02/11 02:36:35;;;;;;;7.90;6.00;;;7.70;99.90;;;;;;6124802;23;20451;-70
2023/02/11 02:39:05;;;;;;;18.80;8.60;;;7.80;99.90;;;;;;6123855;23;20358;-71
2023/02/11 02:41:34;;;;;;;11.47;7.57;;;7.90;99.90;;;;;;6123778;23;20489;-71
2023/02/11 02:44:01;;;;;;;15.50;5.77;;;7.90;99.90;;;;;;6124470;23;20464;-72
2023/02/11 02:46:30;;;;;;;12.60;7.37;;;7.80;99.90;;;;;;6124564;23;20382;-71
2023/02/11 02:48:59;;;;;;;14.23;9.03;;;7.70;99.90;;;;;;6123907;23;20420;-71
2023/02/11 02:51:49;;;;;;;14.80;8.63;;;7.70;99.90;;;;;;6124054;23;20429;-71
2023/02/11 02:54:41;;;;;;;9.60;6.73;;;7.70;99.90;;;;;;6104374;23;20390;-71
2023/02/11 02:57:24;;;;;;;5.60;4.30;;;7.70;99.90;;;;;;6080418;23;20450;-72
2023/02/11 03:00:04;;;;;;;13.00;6.37;;;7.50;99.90;;;;;;6124294;23;20453;-71
2023/02/11 03:02:36;;;;;;;11.43;7.10;;;7.60;99.90;;;;;;6124132;23;20402;-71
2023/02/11 03:05:12;;;;;;;12.60;6.10;;;7.70;99.90;;;;;;6124214;23;20373;-71
2023/02/11 03:07:46;;;;;;;12.33;6.50;;;7.60;99.90;;;;;;6123379;23;20432;-71
2023/02/11 03:10:17;;;;;;;10.63;6.77;;;7.60;99.90;;;;;;6123968;23;20365;-71
2023/02/11 03:12:46;;;;;;;12.50;8.57;;;7.50;99.90;;;;;;6124213;23;20889;-71
2023/02/11 03:15:14;;;;;;;14.70;7.47;;;7.50;99.90;;;;;;6123941;23;20411;-71
2023/02/11 03:17:44;;;;;;;14.50;7.10;;;7.50;99.90;;;;;;6123088;23;20449;-71
2023/02/11 03:20:17;;;;;;;16.77;8.07;;;7.60;99.90;;;;;;6124461;23;20384;-71
2023/02/11 03:22:50;;;;;;;10.27;6.80;;;7.70;99.90;;;;;;6123948;23;20808;-71
2023/02/11 03:25:18;;;;;;;16.43;8.13;;;7.70;99.90;;;;;;6122724;23;20398;-72
2023/02/11 03:27:49;;;;;;;12.67;6.73;;;7.70;99.90;;;;;;6124072;23;20461;-72
2023/02/11 03:30:20;;;;;;;9.17;6.30;;;7.70;99.90;;;;;;6123943;23;20441;-72
2023/02/11 03:32:51;;;;;;;10.27;6.30;;;7.80;99.90;;;;;;6123932;23;20431;-69
2023/02/11 03:35:23;;;;;;;11.53;5.60;;;7.70;99.90;;;;;;6122792;23;20861;-69
2023/02/11 03:37:52;;;;;;;12.97;7.37;;;7.50;99.90;;;;;;6123390;23;20538;-70
2023/02/11 03:40:22;;;;;;;10.47;6.00;;;7.40;99.90;;;;;;6124502;23;20386;-70
2023/02/11 03:42:53;;;;;;;7.73;7.00;;;7.40;99.90;;;;;;6124686;23;20430;-71
2023/02/11 03:45:23;;;;;;;22.83;8.80;;;7.40;99.90;;;;;;6123809;23;20494;-70
2023/02/11 03:47:55;;;;;;;11.10;7.30;;;7.50;99.90;;;;;;6122541;23;20910;-71
2023/02/11 03:50:26;;;;;;;17.60;7.97;;;7.50;99.90;;;;;;6122887;23;20391;-70
2023/02/11 03:52:56;;;;;;;14.40;6.60;;;7.40;99.90;;;;;;6124713;23;20427;-70
2023/02/11 03:55:25;;;;;;;9.77;5.87;;;7.40;99.90;;;;;;6125187;23;20477;-70
2023/02/11 03:57:52;;;;;;;11.43;9.20;;;7.40;99.90;;;;;;6122818;23;20458;-70
2023/02/11 04:00:19;;;;;;;16.57;6.20;;;7.30;99.90;;;;;;6123187;23;20411;-68
2023/02/11 04:02:46;;;;;;;17.00;9.13;;;7.30;99.90;;;;;;6122865;23;20412;-69
2023/02/11 04:05:16;;;;;;;15.40;7.53;;;7.30;99.90;;;;;;6122822;23;20378;-69
2023/02/11 04:07:44;;;;;;;6.00;3.60;;;7.30;99.90;;;;;;6122921;23;20446;-71
2023/02/11 04:10:12;;;;;;;6.00;5.40;;;7.20;99.90;;;;;;6122836;23;20439;-72
2023/02/11 04:12:38;;;;;;;20.87;8.80;;;7.20;99.90;;;;;;6124256;23;20413;-69
2023/02/11 04:15:06;;;;;;;16.67;10.37;;;7.10;99.90;;;;;;6123543;23;20482;-69
2023/02/11 04:17:33;;;;;;;19.90;9.23;;;7.20;99.90;;;;;;6123091;23;20460;-69
2023/02/11 04:20:00;;;;;;;12.67;7.80;;;7.20;99.90;;;;;;6122631;23;20721;-70
2023/02/11 04:22:27;;;;;;;14.73;9.23;;;7.20;99.90;;;;;;6123348;23;20611;-70
2023/02/11 04:24:56;;;;;;;20.37;10.13;;;7.10;99.90;;;;;;6096337;23;20408;-70
2023/02/11 04:27:23;;;;;;;17.30;8.37;;;7.10;99.90;;;;;;6122623;23;20413;-70
2023/02/11 04:29:51;;;;;;;15.10;7.30;;;7.10;99.90;;;;;;6123193;23;20468;-70
2023/02/11 04:32:18;;;;;;;11.83;6.57;;;7.10;99.90;;;;;;6122216;23;20434;-70
2023/02/11 04:34:45;;;;;;;10.80;7.43;;;7.10;99.90;;;;;;6123322;23;20522;-70
2023/02/11 04:37:12;;;;;;;16.20;9.50;;;7.10;99.90;;;;;;6121829;23;20491;-70
2023/02/11 04:39:38;;;;;;;18.57;9.53;;;7.00;99.90;;;;;;6124604;23;20386;-70
2023/02/11 04:42:07;;;;;;;13.47;7.37;;;7.00;99.90;;;;;;6123434;23;20775;-71
2023/02/11 04:44:34;;;;;;;10.73;6.73;;;7.00;99.90;;;;;;6123247;23;20909;-70
2023/02/11 04:47:01;;;;;;;10.60;5.50;;;6.90;99.90;;;;;;6122430;23;20890;-70
2023/02/11 04:49:28;;;;;;;18.03;11.30;;;7.00;99.90;;;;;;6123223;23;20435;-70
2023/02/11 04:51:56;;;;;;;19.57;9.63;;;6.90;99.90;;;;;;6133685;23;20440;-70
2023/02/11 04:54:23;;;;;;;16.10;10.03;;;6.90;99.90;;;;;;6123511;23;20386;-70
2023/02/11 04:56:50;;;;;;;16.67;8.83;;;6.90;99.90;;;;;;6122163;23;20411;-70
2023/02/11 04:59:18;;;;;;;21.60;10.00;;;6.80;99.90;;;;;;6122863;23;20422;-70
2023/02/11 05:01:45;;;;;;;13.30;7.47;;;6.80;99.90;;;;;;6123312;23;21021;-69
2023/02/11 05:04:12;;;;;;;24.23;10.07;;;6.80;99.90;;;;;;6123382;23;20985;-70
2023/02/11 05:06:39;;;;;;;24.00;10.80;;;6.80;99.90;;;;;;6123626;23;20424;-70
2023/02/11 05:09:07;;;;;;;18.90;9.63;;;6.90;99.90;;;;;;6122124;23;20389;-70
2023/02/11 05:11:35;;;;;;;22.60;10.00;;;7.00;99.90;;;;;;6123511;23;20409;-72
2023/02/11 05:14:02;;;;;;;16.40;7.73;;;7.00;99.90;;;;;;6124160;23;20415;-71
2023/02/11 05:16:30;;;;;;;24.30;11.83;;;7.00;99.90;;;;;;6123480;23;20393;-70
2023/02/11 05:18:57;;;;;;;19.87;7.33;;;7.00;99.90;;;;;;6122771;23;20409;-70
2023/02/11 05:21:25;;;;;;;15.83;8.90;;;6.90;99.90;;;;;;6124802;23;20416;-70
2023/02/11 05:23:52;;;;;;;25.50;15.13;;;6.90;99.90;;;;;;6124623;23;20517;-71
2023/02/11 05:26:19;;;;;;;6.30;3.80;;;6.90;99.90;;;;;;6124131;23;20385;-70
2023/02/11 05:28:46;;;;;;;20.57;10.13;;;6.80;99.90;;;;;;6123996;23;20386;-71
2023/02/11 05:31:15;;;;;;;23.77;11.33;;;6.90;99.90;;;;;;6124444;23;20911;-71
2023/02/11 05:33:43;;;;;;;15.30;7.10;;;6.80;99.90;;;;;;6125821;23;20397;-70
2023/02/11 05:36:13;;;;;;;16.80;8.20;;;6.80;99.90;;;;;;6126566;23;20906;-70
2023/02/11 05:38:41;;;;;;;19.20;10.30;;;6.70;99.90;;;;;;6124247;23;20447;-70
2023/02/11 05:41:08;;;;;;;18.63;11.80;;;6.70;99.90;;;;;;6125176;23;20437;-72
2023/02/11 05:43:35;;;;;;;20.77;9.10;;;6.80;99.90;;;;;;6125429;23;20465;-71
2023/02/11 05:46:03;;;;;;;18.80;9.10;;;6.80;99.90;;;;;;6124096;23;20415;-72
2023/02/11 05:48:30;;;;;;;12.63;6.53;;;6.80;99.90;;;;;;6129957;23;20405;-71
2023/02/11 05:50:59;;;;;;;19.57;10.03;;;6.80;99.90;;;;;;6125735;23;20914;-71
2023/02/11 05:53:26;;;;;;;28.10;10.40;;;6.80;99.90;;;;;;6125034;23;20416;-71
2023/02/11 05:55:52;;;;;;;26.93;11.97;;;6.80;99.90;;;;;;6125730;23;20465;-71
2023/02/11 05:58:19;;;;;;;16.47;8.27;;;6.80;99.90;;;;;;6125185;23;20485;-71
2023/02/11 06:00:46;;;;;;;19.70;11.60;;;6.80;99.90;;;;;;6124459;23;20446;-71
2023/02/11 06:03:13;;;;;;;15.80;9.03;;;6.80;99.90;;;;;;6125394;23;20382;-71
2023/02/11 06:05:42;;;;;;;25.53;10.20;;;6.90;99.90;;;;;;6125413;23;20778;-72
2023/02/11 06:08:10;;;;;;;19.83;12.47;;;7.00;99.90;;;;;;6124526;23;20401;-71
2023/02/11 06:10:37;;;;;;;29.03;11.53;;;7.00;99.90;;;;;;6097914;23;20465;-71
2023/02/11 06:13:04;;;;;;;19.80;11.97;;;6.90;99.90;;;;;;6124914;23;20498;-71
2023/02/11 06:15:31;;;;;;;24.50;14.27;;;7.00;99.90;;;;;;6125015;23;20407;-71
2023/02/11 06:17:58;;;;;;;34.87;14.90;;;7.00;99.90;;;;;;6124106;23;20525;-71
2023/02/11 06:20:25;;;;;;;20.07;11.27;;;7.00;99.90;;;;;;6125363;23;20389;-71
2023/02/11 06:22:52;;;;;;;23.77;10.37;;;7.00;99.90;;;;;;6124733;23;20473;-71
2023/02/11 06:25:20;;;;;;;17.13;8.60;;;7.00;99.90;;;;;;6124869;23;20389;-71
2023/02/11 06:27:47;;;;;;;22.57;9.83;;;7.10;99.90;;;;;;6125214;23;20464;-71
2023/02/11 06:30:15;;;;;;;24.80;11.87;;;7.10;99.90;;;;;;6124858;23;20472;-71
2023/02/11 06:32:42;;;;;;;20.27;10.47;;;7.00;99.90;;;;;;6122843;23;20488;-71
2023/02/11 06:35:08;;;;;;;30.60;11.73;;;7.00;99.90;;;;;;6123748;23;20415;-71
2023/02/11 06:37:35;;;;;;;27.17;10.43;;;7.10;99.90;;;;;;6124313;23;20415;-70
2023/02/11 06:40:02;;;;;;;17.27;9.23;;;7.10;99.90;;;;;;6123659;23;20538;-69
2023/02/11 06:42:30;;;;;;;24.90;12.10;;;7.10;99.90;;;;;;6124723;23;20409;-72
2023/02/11 06:44:57;;;;;;;27.47;11.80;;;7.00;99.90;;;;;;6126309;23;20425;-72
2023/02/11 06:47:24;;;;;;;37.70;13.37;;;7.00;99.90;;;;;;6126283;23;20410;-71
2023/02/11 06:49:51;;;;;;;26.07;12.77;;;7.10;99.90;;;;;;6124821;23;20445;-72
2023/02/11 06:52:18;;;;;;;33.13;11.00;;;7.00;99.90;;;;;;6122580;23;20828;-71
2023/02/11 06:54:45;;;;;;;21.97;14.60;;;7.10;99.90;;;;;;6125430;23;20756;-70
2023/02/11 06:57:12;;;;;;;18.53;10.87;;;7.20;99.90;;;;;;6124764;23;20455;-71
2023/02/11 06:59:41;;;;;;;28.33;12.60;;;7.20;99.90;;;;;;6124435;23;20449;-70
2023/02/11 07:02:09;;;;;;;29.43;13.03;;;7.20;99.90;;;;;;6124189;23;20434;-70
2023/02/11 07:04:36;;;;;;;27.33;10.67;;;7.20;99.90;;;;;;6123073;23;20497;-70
2023/02/11 07:07:03;;;;;;;29.83;13.40;;;7.20;99.90;;;;;;6123814;23;20760;-70
2023/02/11 07:09:32;;;;;;;21.97;11.50;;;7.10;99.90;;;;;;6124678;23;20811;-69
2023/02/11 07:12:00;;;;;;;19.10;9.80;;;7.10;99.90;;;;;;6123617;23;20421;-71
2023/02/11 07:14:27;;;;;;;28.10;14.70;;;7.10;99.90;;;;;;6124292;23;20414;-70
2023/02/11 07:16:57;;;;;;;32.67;14.60;;;7.10;99.90;;;;;;6122260;23;20410;-71
2023/02/11 07:19:24;;;;;;;26.23;12.00;;;7.10;99.90;;;;;;6122545;23;20976;-71
2023/02/11 07:21:51;;;;;;;14.13;5.20;;;7.10;99.90;;;;;;6124387;23;20758;-71
2023/02/11 07:24:18;;;;;;;28.77;14.33;;;7.10;99.90;;;;;;6123910;23;20501;-71
2023/02/11 07:26:45;;;;;;;27.00;15.47;;;7.10;99.90;;;;;;6121307;23;20382;-70
2023/02/11 07:29:12;;;;;;;21.67;11.27;;;7.30;99.90;;;;;;6122421;23;20409;-70
2023/02/11 07:31:39;;;;;;;57.47;15.07;;;7.20;99.90;;;;;;6122006;23;20402;-72
2023/02/11 07:34:07;;;;;;;21.27;10.03;;;7.20;99.90;;;;;;6123450;23;20382;-71
2023/02/11 07:36:34;;;;;;;30.57;11.57;;;7.20;99.90;;;;;;6123886;23;20401;-71
2023/02/11 07:39:01;;;;;;;31.97;16.10;;;7.20;99.90;;;;;;6122209;23;20451;-71
2023/02/11 07:41:28;;;;;;;21.03;10.60;;;7.20;99.90;;;;;;6128919;23;20427;-71
2023/02/11 07:43:56;;;;;;;38.97;15.73;;;7.20;99.90;;;;;;6125391;23;20438;-71
2023/02/11 07:46:24;;;;;;;27.03;12.53;;;7.20;99.90;;;;;;6123510;23;20438;-71
2023/02/11 07:48:51;;;;;;;31.23;14.10;;;7.20;99.90;;;;;;6123486;23;20731;-70
2023/02/11 07:51:22;;;;;;;32.63;12.60;;;7.30;99.90;;;;;;6123911;23;20417;-71
2023/02/11 07:53:49;;;;;;;27.70;14.17;;;7.30;99.90;;;;;;6122262;23;20460;-71
2023/02/11 07:56:18;;;;;;;28.10;13.70;;;7.30;99.90;;;;;;6124225;23;20406;-72
2023/02/11 07:58:45;;;;;;;18.40;8.77;;;7.20;99.90;;;;;;6123495;23;20442;-71
2023/02/11 08:01:15;;;;;;;12.73;8.20;;;7.30;99.90;;;;;;6122460;23;20481;-72
2023/02/11 08:03:42;;;;;;;31.73;14.50;;;7.20;99.90;;;;;;6123685;23;20958;-69
2023/02/11 08:06:11;;;;;;;29.77;12.97;;;7.20;99.90;;;;;;6123115;23;20844;-71
2023/02/11 08:08:41;;;;;;;21.53;10.63;;;7.20;99.90;;;;;;6122239;23;20452;-71
2023/02/11 08:11:09;;;;;;;26.97;7.17;;;7.30;99.90;;;;;;6123920;23;20426;-71
2023/02/11 08:13:36;;;;;;;32.00;16.30;;;7.40;99.90;;;;;;6122901;23;20437;-69
2023/02/11 08:16:06;;;;;;;26.77;12.80;;;7.30;99.90;;;;;;6122776;23;20413;-70
2023/02/11 08:18:34;;;;;;;27.63;12.83;;;7.30;99.90;;;;;;6123694;23;20412;-69
2023/02/11 08:21:05;;;;;;;40.33;14.40;;;7.40;99.90;;;;;;6122871;23;20461;-69
2023/02/11 08:23:32;;;;;;;30.30;11.80;;;7.40;99.90;;;;;;6122566;23;20868;-69
2023/02/11 08:26:03;;;;;;;15.37;7.97;;;7.30;99.90;;;;;;6122522;23;20412;-70
2023/02/11 08:28:30;;;;;;;29.80;11.33;;;7.40;99.90;;;;;;6122200;23;20433;-69
2023/02/11 08:30:57;;;;;;;29.03;15.63;;;7.50;99.90;;;;;;6122739;23;20434;-70
2023/02/11 08:33:24;;;;;;;28.70;13.80;;;7.50;99.90;;;;;;6122927;23;20390;-70
2023/02/11 08:35:53;;;;;;;30.07;15.13;;;7.40;99.90;;;;;;6122168;23;20467;-70
2023/02/11 08:38:20;;;;;;;22.77;11.60;;;7.40;99.90;;;;;;6126400;23;20390;-69
2023/02/11 08:40:48;;;;;;;28.53;16.40;;;7.40;99.90;;;;;;6128505;23;20448;-69
2023/02/11 08:43:16;;;;;;;37.33;15.10;;;7.30;99.90;;;;;;6122816;23;20724;-70
2023/02/11 08:45:43;;;;;;;29.13;13.47;;;7.40;99.90;;;;;;6122845;23;20417;-70
2023/02/11 08:48:10;;;;;;;36.50;14.33;;;7.50;99.90;;;;;;6123199;23;20390;-69
2023/02/11 08:50:39;;;;;;;34.80;11.00;;;7.70;99.90;;;;;;6122699;23;20487;-69
2023/02/11 08:53:06;;;;;;;33.83;13.27;;;7.70;99.90;;;;;;6123309;23;20414;-70
2023/02/11 08:55:33;;;;;;;28.43;12.37;;;7.70;99.90;;;;;;6123846;23;20442;-70
2023/02/11 08:58:00;;;;;;;30.30;12.73;;;7.70;99.90;;;;;;6125192;23;20415;-71
2023/02/11 09:00:28;;;;;;;31.37;13.53;;;7.70;99.90;;;;;;6125057;23;20957;-71
2023/02/11 09:02:55;;;;;;;33.90;15.07;;;7.70;99.90;;;;;;6125508;23;20741;-70
2023/02/11 09:05:22;;;;;;;30.37;12.50;;;7.60;99.90;;;;;;6125973;23;20443;-70
2023/02/11 09:07:49;;;;;;;35.83;14.47;;;7.70;99.90;;;;;;6125736;23;20755;-70
2023/02/11 09:10:16;;;;;;;21.17;11.80;;;7.80;99.90;;;;;;6126250;23;20382;-71
2023/02/11 09:12:43;;;;;;;30.83;13.90;;;7.90;99.90;;;;;;6124478;23;20810;-70
2023/02/11 09:15:10;;;;;;;24.27;14.37;;;7.90;99.90;;;;;;6123427;23;20499;-70
2023/02/11 09:17:38;;;;;;;50.47;14.73;;;8.00;99.90;;;;;;6124715;23;21003;-70
2023/02/11 09:20:08;;;;;;;31.87;14.57;;;7.90;99.90;;;;;;6124459;23;20530;-71
2023/02/11 09:22:35;;;;;;;21.10;10.43;;;7.90;99.90;;;;;;6123486;23;20431;-70
2023/02/11 09:25:02;;;;;;;21.00;13.67;;;8.00;99.90;;;;;;6120817;23;20480;-69
2023/02/11 09:27:29;;;;;;;27.50;13.00;;;8.00;99.90;;;;;;6124282;23;20890;-70
2023/02/11 09:29:56;;;;;;;29.63;10.60;;;7.90;99.90;;;;;;6124500;23;20407;-70
2023/02/11 09:32:23;;;;;;;24.37;12.60;;;7.80;99.90;;;;;;6123873;23;20525;-70
2023/02/11 09:34:51;;;;;;;28.53;13.50;;;7.90;99.90;;;;;;6125390;23;20751;-70
2023/02/11 09:37:18;;;;;;;30.30;12.30;;;8.00;99.90;;;;;;6136331;23;20568;-70
2023/02/11 09:39:45;;;;;;;26.20;12.07;;;8.10;99.90;;;;;;6124183;23;20800;-70
2023/02/11 09:42:43;;;;;;;28.73;13.20;;;8.10;99.90;;;;;;6124457;23;20922;-70
2023/02/11 09:45:18;;;;;;;27.63;13.90;;;8.10;99.90;;;;;;6123479;23;20715;-70
2023/02/11 09:47:57;;;;;;;22.23;11.80;;;8.10;99.90;;;;;;6123303;23;20386;-69
2023/02/11 09:50:30;;;;;;;31.10;13.50;;;8.00;99.90;;;;;;6124483;23;20405;-70
2023/02/11 09:53:00;;;;;;;24.97;10.87;;;8.00;99.90;;;;;;6124642;23;20473;-70
2023/02/11 09:55:29;;;;;;;15.77;11.13;;;8.00;99.90;;;;;;6123502;23;20902;-71
2023/02/11 09:57:57;;;;;;;24.80;13.83;;;8.00;99.90;;;;;;6123719;23;20460;-70
2023/02/11 10:00:28;;;;;;;25.90;15.63;;;8.00;99.90;;;;;;6123894;23;20418;-70
2023/02/11 10:03:23;;;;;;;26.43;15.80;;;8.00;99.90;;;;;;6123402;23;20470;-71
2023/02/11 10:06:08;;;;;;;31.50;9.00;;;8.10;99.90;;;;;;6123173;23;20474;-71
2023/02/11 10:08:41;;;;;;;18.97;9.70;;;8.10;99.90;;;;;;6124414;23;20445;-69
2023/02/11 10:11:17;;;;;;;23.30;10.70;;;8.10;99.90;;;;;;6123437;23;20477;-71
2023/02/11 10:13:53;;;;;;;26.10;11.47;;;8.10;99.90;;;;;;6124160;23;20710;-70
2023/02/11 10:16:36;;;;;;;30.57;12.90;;;8.20;99.90;;;;;;6124034;23;20370;-71
2023/02/11 10:19:14;;;;;;;25.53;12.70;;;8.20;99.90;;;;;;6123940;23;20405;-71
2023/02/11 10:21:51;;;;;;;19.47;11.60;;;8.20;99.90;;;;;;6124783;23;20496;-71
2023/02/11 10:24:19;;;;;;;18.37;11.20;;;8.20;99.90;;;;;;6124493;23;20415;-72
2023/02/11 10:26:47;;;;;;;45.53;16.97;;;8.30;99.90;;;;;;6124378;23;20443;-70
2023/02/11 10:29:34;;;;;;;41.50;14.90;;;8.30;99.90;;;;;;6123519;23;20431;-71
2023/02/11 10:32:05;;;;;;;24.13;12.20;;;8.30;99.90;;;;;;6124358;23;20430;-71
2023/02/11 10:34:32;;;;;;;33.93;14.97;;;8.30;99.90;;;;;;6130914;23;20926;-71
2023/02/11 10:37:01;;;;;;;28.77;13.27;;;8.20;99.90;;;;;;6123126;23;20804;-69
2023/02/11 10:39:28;;;;;;;49.77;15.97;;;8.20;99.90;;;;;;6121765;23;20783;-71
2023/02/11 10:41:59;;;;;;;32.63;12.90;;;8.20;99.90;;;;;;6122330;23;20445;-70
2023/02/11 10:44:30;;;;;;;30.67;13.60;;;8.30;99.90;;;;;;6123167;23;20461;-70
2023/02/11 10:47:00;;;;;;;19.50;11.03;;;8.40;99.90;;;;;;6123451;23;20433;-70
2023/02/11 10:49:39;;;;;;;16.63;10.23;;;8.50;99.90;;;;;;6123811;23;20763;-70
2023/02/11 10:52:19;;;;;;;23.60;10.13;;;8.50;99.90;;;;;;6123199;23;20836;-70
2023/02/11 10:54:57;;;;;;;28.73;13.33;;;8.40;99.90;;;;;;6123532;23;20373;-70
2023/02/11 10:57:28;;;;;;;43.33;17.57;;;8.40;99.90;;;;;;6123179;23;20413;-70
2023/02/11 11:00:00;;;;;;;31.70;15.50;;;8.50;99.90;;;;;;6123192;23;20488;-70
2023/02/11 11:02:33;;;;;;;28.37;12.07;;;8.60;99.90;;;;;;6122697;23;20925;-69
2023/02/11 11:05:03;;;;;;;25.87;14.23;;;8.70;99.90;;;;;;6122258;23;20460;-70
2023/02/11 11:07:32;;;;;;;53.50;15.33;;;8.80;99.90;;;;;;6121779;23;20517;-70
2023/02/11 11:10:04;;;;;;;38.20;16.83;;;8.80;99.90;;;;;;6123033;23;20407;-70
2023/02/11 11:12:35;;;;;;;33.27;13.27;;;8.80;99.90;;;;;;6123862;23;20751;-69
2023/02/11 11:15:15;;;;;;;43.63;16.27;;;8.80;99.90;;;;;;6123933;23;20490;-70
2023/02/11 11:17:42;;;;;;;21.97;12.40;;;8.90;99.90;;;;;;6122562;23;20871;-70
2023/02/11 11:20:26;;;;;;;24.53;12.00;;;9.00;99.90;;;;;;6122808;23;20473;-71
2023/02/11 11:23:09;;;;;;;30.20;14.00;;;8.90;99.90;;;;;;6123502;23;20812;-71
2023/02/11 11:25:39;;;;;;;48.53;14.30;;;8.90;99.90;;;;;;6122776;23;20514;-71
2023/02/11 11:28:07;;;;;;;34.60;12.60;;;8.90;99.90;;;;;;6123590;23;20411;-71
2023/02/11 11:30:41;;;;;;;34.07;13.50;;;8.90;99.90;;;;;;6131202;23;20421;-69
2023/02/11 11:33:19;;;;;;;31.40;16.23;;;8.80;99.90;;;;;;6125380;23;20393;-71
2023/02/11 11:36:00;;;;;;;43.67;15.90;;;8.90;99.90;;;;;;6122811;23;20373;-71
2023/02/11 11:38:30;;;;;;;34.87;14.73;;;8.80;99.90;;;;;;6122718;23;20410;-71
2023/02/11 11:41:25;;;;;;;31.47;15.50;;;8.80;99.90;;;;;;6124341;23;20513;-70
2023/02/11 11:43:57;;;;;;;32.47;14.27;;;8.80;99.90;;;;;;6123729;23;20423;-72
2023/02/11 11:46:26;;;;;;;38.13;16.47;;;8.80;99.90;;;;;;6123815;23;20462;-71
2023/02/11 11:49:00;;;;;;;33.83;12.90;;;8.90;99.90;;;;;;6122135;23;20924;-70
2023/02/11 11:51:28;;;;;;;33.77;15.20;;;8.90;99.90;;;;;;6124256;23;20436;-71
2023/02/11 11:54:00;;;;;;;47.63;18.37;;;8.90;99.90;;;;;;6123821;23;20476;-70
2023/02/11 11:56:29;;;;;;;42.00;16.87;;;8.90;99.90;;;;;;6123853;23;20373;-71
2023/02/11 11:58:59;;;;;;;27.30;16.37;;;9.00;99.90;;;;;;6123818;23;20415;-70
2023/02/11 12:01:39;;;;;;;32.90;13.57;;;9.00;99.90;;;;;;6123371;23;20494;-71
2023/02/11 12:04:36;;;;;;;35.90;16.80;;;8.90;99.90;;;;;;6124007;23;20395;-71
2023/02/11 12:07:17;;;;;;;32.30;15.20;;;9.00;99.90;;;;;;6101188;23;20398;-71
2023/02/11 12:09:58;;;;;;;37.53;16.00;;;8.90;99.90;;;;;;6122801;23;20391;-70
2023/02/11 12:12:38;;;;;;;39.47;18.43;;;8.90;99.90;;;;;;6123813;23;20482;-70
2023/02/11 12:15:22;;;;;;;33.60;15.30;;;9.00;99.90;;;;;;6124086;23;20414;-69
2023/02/11 12:18:08;;;;;;;40.43;18.97;;;9.00;99.90;;;;;;6123714;23;20465;-70
2023/02/11 12:20:48;;;;;;;23.73;11.80;;;9.10;99.90;;;;;;6122926;23;20484;-69
2023/02/11 12:23:32;;;;;;;32.97;13.70;;;9.20;99.90;;;;;;6123287;23;20454;-70
2023/02/11 12:26:12;;;;;;;39.07;14.97;;;9.00;99.90;;;;;;6124352;23;20430;-71
2023/02/11 12:28:49;;;;;;;38.57;18.60;;;9.00;99.90;;;;;;6124513;23;20888;-70
2023/02/11 12:31:30;;;;;;;35.63;16.40;;;9.10;99.90;;;;;;6123180;23;20412;-70
2023/02/11 12:34:14;;;;;;;37.33;14.17;;;9.20;99.90;;;;;;6126548;23;20383;-71
2023/02/11 12:37:01;;;;;;;32.80;16.83;;;9.30;99.90;;;;;;6124130;23;20757;-69
2023/02/11 12:39:37;;;;;;;37.30;13.23;;;9.30;99.90;;;;;;6123715;23;20361;-70
2023/02/11 12:45:29;;;;;;;40.27;14.77;;;9.30;99.90;;;;;;6123768;23;20337;-70
2023/02/11 12:48:11;;;;;;;30.03;15.57;;;9.30;99.90;;;;;;6123811;23;20929;-70
2023/02/11 12:50:50;;;;;;;16.10;8.90;;;9.30;99.90;;;;;;6122182;23;20358;-70
2023/02/11 12:53:38;;;;;;;46.80;16.57;;;9.30;99.90;;;;;;6123593;23;20369;-69
2023/02/11 12:56:11;;;;;;;29.30;15.07;;;9.40;99.90;;;;;;6123651;23;20747;-69
2023/02/11 12:58:42;;;;;;;26.07;12.57;;;9.40;99.90;;;;;;6123200;23;20412;-70
2023/02/11 13:01:15;;;;;;;38.47;15.60;;;9.40;99.90;;;;;;6123214;23;20425;-69
2023/02/11 13:03:47;;;;;;;25.63;13.10;;;9.50;99.90;;;;;;6123907;23;20366;-69
2023/02/11 13:06:16;;;;;;;38.87;14.00;;;9.50;99.90;;;;;;6123226;23;20379;-69
2023/02/11 13:08:45;;;;;;;31.23;11.23;;;9.50;99.90;;;;;;6123295;23;20431;-70
2023/02/11 13:11:17;;;;;;;33.90;13.73;;;9.40;99.90;;;;;;6123369;23;20402;-69
2023/02/11 13:13:52;;;;;;;26.17;12.77;;;9.40;99.90;;;;;;6123245;23;20847;-69
2023/02/11 13:16:29;;;;;;;48.73;15.97;;;9.50;99.90;;;;;;6123530;23;20752;-70
2023/02/11 13:19:03;;;;;;;26.17;10.73;;;9.50;99.90;;;;;;6123468;23;20361;-70
2023/02/11 13:21:38;;;;;;;31.10;14.80;;;9.40;99.90;;;;;;6123133;23;20949;-70
2023/02/11 13:24:21;;;;;;;29.83;15.13;;;9.50;99.90;;;;;;6123321;23;20397;-71